Terminal Aerodrome Forecast
Issued by NWS

Home | Current Version | Previous Version | Text Only | Print | Product List | Glossary On
Versions: 1 2 3 4 5 6 7 8 9 10 11 12
000
FTUS44 KLZK 131700
TAFHRO
TAF
KHRO 131727Z 1318/1418 23007KT P6SM SCT040 SCT100
     FM140200 21005KT P6SM VCTS SCT040CB BKN100
     FM140600 21005KT P6SM VCTS SCT050CB OVC100 PROB30 1409/1415 5SM
      TSRA OVC035CB
     FM141500 33007KT P6SM BKN100=

USA.gov is the U.S. government's official web portal to all federal, state and local government web resources and services.